Time;durP1;ratioP1;P1;durP2;ratioP2;P2;SDS_P1;SDS_P2;PMS_P1;PMS_P2;Temp;Humidity;BMP_temperature;BMP_pressure;BME280_temperature;BME280_humidity;BME280_pressure;Samples;Min_cycle;Max_cycle;Signal;HPM_P1;HPM_P2
2022/04/15 00:01:26;;;;;;;0.95;0.60;;;;;;;21.64;47.20;99541.28;5111685;28;20044;-70
2022/04/15 00:03:52;;;;;;;1.13;0.63;;;;;;;21.62;47.22;99541.66;5110801;28;20124;-66
2022/04/15 00:06:18;;;;;;;1.05;0.60;;;;;;;21.61;47.18;99530.91;5111478;28;20052;-66
2022/04/15 00:08:44;;;;;;;1.10;0.70;;;;;;;21.60;47.31;99538.47;5111488;28;20047;-66
2022/04/15 00:11:10;;;;;;;0.80;0.60;;;;;;;21.59;47.23;99539.63;5111388;28;20457;-69
2022/04/15 00:13:36;;;;;;;1.55;0.60;;;;;;;21.58;47.31;99540.03;5092545;28;20089;-70
2022/04/15 00:16:07;;;;;;;1.15;0.60;;;;;;;21.58;47.22;99540.03;5110743;28;20048;-70
2022/04/15 00:18:34;;;;;;;1.08;0.60;;;;;;;21.57;47.19;99538.41;5111389;28;20051;-70
2022/04/15 00:21:00;;;;;;;0.88;0.60;;;;;;;21.57;47.56;99535.59;5111091;28;20123;-70
2022/04/15 00:23:26;;;;;;;1.52;0.75;;;;;;;21.55;47.43;99530.44;5113860;28;20051;-70
2022/04/15 00:25:53;;;;;;;1.08;0.63;;;;;;;21.53;47.56;99530.00;5114385;28;20096;-69
2022/04/15 00:28:19;;;;;;;1.27;0.70;;;;;;;21.54;47.64;99536.38;5114625;28;20043;-69
2022/04/15 00:30:45;;;;;;;1.77;0.70;;;;;;;21.53;47.51;99532.00;5112666;28;20494;-70
2022/04/15 00:33:10;;;;;;;0.65;0.60;;;;;;;21.51;47.47;99529.59;5111226;28;20035;-70
2022/04/15 00:35:36;;;;;;;0.70;0.50;;;;;;;21.50;47.66;99533.53;5111110;28;20100;-70
2022/04/15 00:38:01;;;;;;;1.63;0.70;;;;;;;21.51;47.42;99534.34;5110803;28;20047;-70
2022/04/15 00:40:27;;;;;;;0.63;0.57;;;;;;;21.49;47.72;99534.72;5111007;28;20055;-70
2022/04/15 00:42:52;;;;;;;0.60;0.50;;;;;;;21.51;47.30;99537.16;5110881;28;20040;-70
2022/04/15 00:45:18;;;;;;;0.73;0.50;;;;;;;21.49;47.69;99542.25;5111132;28;20055;-70
2022/04/15 00:47:53;;;;;;;0.77;0.60;;;;;;;21.45;47.66;99533.06;5111177;28;20043;-70
2022/04/15 00:50:23;;;;;;;1.10;0.77;;;;;;;21.46;47.74;99532.69;5110925;28;20044;-70
2022/04/15 00:52:58;;;;;;;0.63;0.57;;;;;;;21.46;47.46;99529.13;5110950;28;20067;-70
2022/04/15 00:55:24;;;;;;;1.00;0.60;;;;;;;21.45;47.43;99535.88;5110584;28;20075;-70
2022/04/15 00:57:52;;;;;;;1.13;0.70;;;;;;;21.43;47.67;99537.03;5110496;28;20056;-66
2022/04/15 01:00:19;;;;;;;1.33;0.75;;;;;;;21.45;47.55;99541.44;5110730;28;20040;-66
2022/04/15 01:02:46;;;;;;;0.80;0.47;;;;;;;21.39;47.78;99527.03;5110732;28;20502;-66
2022/04/15 01:05:13;;;;;;;1.15;0.70;;;;;;;21.42;47.74;99537.41;5110328;28;20421;-70
2022/04/15 01:07:41;;;;;;;0.73;0.60;;;;;;;21.41;47.90;99533.81;5110496;28;20035;-70
2022/04/15 01:10:12;;;;;;;0.65;0.60;;;;;;;21.37;47.53;99538.53;5110408;28;20058;-66
2022/04/15 01:12:40;;;;;;;1.42;0.70;;;;;;;21.39;47.53;99541.75;5091924;28;20735;-70
2022/04/15 01:15:11;;;;;;;0.77;0.63;;;;;;;21.38;47.49;99540.16;5110335;28;20051;-70
2022/04/15 01:17:37;;;;;;;0.98;0.63;;;;;;;21.37;47.68;99546.88;5110334;28;20039;-70
2022/04/15 01:20:04;;;;;;;1.48;0.70;;;;;;;21.35;47.83;99543.66;5110509;28;20414;-66
2022/04/15 01:22:37;;;;;;;1.17;0.70;;;;;;;21.35;47.84;99548.41;5110392;28;20047;-66
2022/04/15 01:25:03;;;;;;;;;;;;;;;21.36;47.58;99547.25;5110757;28;20052;-66
2022/04/15 01:27:34;;;;;;;0.90;0.50;;;;;;;21.34;47.64;99542.06;5110373;28;19915;-66
2022/04/15 01:29:59;;;;;;;0.93;0.70;;;;;;;21.31;47.63;99540.03;5110386;28;20047;-66
2022/04/15 01:32:25;;;;;;;1.25;0.60;;;;;;;21.33;47.67;99548.00;5109989;28;20044;-66
2022/04/15 01:34:50;;;;;;;0.50;0.45;;;;;;;21.31;47.77;99540.03;5109154;28;20043;-70
2022/04/15 01:37:19;;;;;;;0.75;0.50;;;;;;;21.28;47.56;99538.00;5110198;28;20050;-70
2022/04/15 01:39:46;;;;;;;1.10;0.60;;;;;;;21.31;47.80;99542.81;5110135;28;20054;-66
2022/04/15 01:42:13;;;;;;;0.90;0.50;;;;;;;21.28;47.85;99540.78;5109970;28;20054;-66
2022/04/15 01:44:40;;;;;;;0.55;0.43;;;;;;;21.29;47.79;99550.75;5110110;28;20046;-66
2022/04/15 01:47:05;;;;;;;1.08;0.68;;;;;;;21.27;47.36;99547.47;5110130;28;20144;-70
2022/04/15 01:49:31;;;;;;;1.05;0.55;;;;;;;21.26;47.56;99542.31;5109816;28;20505;-65
2022/04/15 01:51:56;;;;;;;1.20;0.60;;;;;;;21.23;47.50;99545.84;5109879;28;20528;-70
2022/04/15 01:54:22;;;;;;;1.13;0.80;;;;;;;21.22;47.61;99541.44;5109551;28;20031;-70
2022/04/15 01:56:47;;;;;;;1.35;0.70;;;;;;;21.25;47.55;99547.06;5109659;28;20046;-70
2022/04/15 01:59:12;;;;;;;1.08;0.60;;;;;;;21.25;47.61;99547.06;5109798;28;20066;-70
2022/04/15 02:01:38;;;;;;;1.00;0.60;;;;;;;21.26;47.72;99559.78;5109797;28;20045;-70
2022/04/15 02:04:03;;;;;;;1.20;0.73;;;;;;;21.27;47.54;99553.03;5109732;28;20055;-66
2022/04/15 02:06:29;;;;;;;1.08;0.70;;;;;;;21.30;47.50;99548.75;5109585;28;20154;-65
2022/04/15 02:08:54;;;;;;;1.02;0.70;;;;;;;21.33;47.65;99554.38;5109837;28;20387;-66
2022/04/15 02:11:19;;;;;;;1.55;0.70;;;;;;;21.36;47.13;99550.03;5109822;28;20039;-66
2022/04/15 02:13:45;;;;;;;0.82;0.50;;;;;;;21.38;47.16;99556.84;5109486;28;20134;-65
2022/04/15 02:16:10;;;;;;;0.90;0.60;;;;;;;21.38;47.04;99550.47;5108909;28;20087;-66
2022/04/15 02:18:36;;;;;;;1.48;0.65;;;;;;;21.41;46.93;99556.06;5109512;28;20394;-69
2022/04/15 02:21:02;;;;;;;1.10;0.57;;;;;;;21.41;47.23;99550.50;5107706;28;20402;-70
2022/04/15 02:23:27;;;;;;;1.05;0.60;;;;;;;21.43;46.82;99556.53;5109367;28;20047;-70
2022/04/15 02:25:53;;;;;;;1.20;0.60;;;;;;;21.42;47.08;99551.31;5109569;28;20044;-70
2022/04/15 02:28:18;;;;;;;0.68;0.50;;;;;;;21.45;46.79;99552.56;5109680;28;20456;-66
2022/04/15 02:30:47;;;;;;;0.95;0.60;;;;;;;21.44;47.00;99557.31;5109350;28;20585;-66
2022/04/15 02:33:13;;;;;;;0.80;0.50;;;;;;;21.41;47.03;99556.06;5109482;28;20083;-66
2022/04/15 02:35:38;;;;;;;1.25;0.70;;;;;;;21.45;46.74;99570.06;5108888;28;20482;-66
2022/04/15 02:38:04;;;;;;;0.95;0.60;;;;;;;21.43;46.90;99555.69;5106275;28;20042;-66
2022/04/15 02:40:29;;;;;;;0.93;0.60;;;;;;;21.45;46.99;99555.34;5109094;28;20047;-66
2022/04/15 02:42:54;;;;;;;1.27;0.68;;;;;;;21.46;46.97;99556.94;5109342;28;20648;-69
2022/04/15 02:45:21;;;;;;;1.15;0.73;;;;;;;21.45;46.79;99558.13;5111526;28;20398;-70
2022/04/15 02:47:47;;;;;;;1.05;0.70;;;;;;;21.46;46.90;99562.50;5112735;28;20420;-70
2022/04/15 02:50:13;;;;;;;0.77;0.70;;;;;;;21.44;46.68;99560.09;5112855;28;20044;-70
2022/04/15 02:52:38;;;;;;;0.90;0.50;;;;;;;21.45;46.76;99563.69;5112744;28;20048;-70
2022/04/15 02:55:04;;;;;;;1.02;0.65;;;;;;;21.45;46.79;99566.47;5112507;28;20097;-70
2022/04/15 02:57:30;;;;;;;1.52;0.60;;;;;;;21.43;46.76;99561.25;5112414;28;20472;-70
2022/04/15 02:59:55;;;;;;;1.30;0.65;;;;;;;21.45;46.56;99570.06;5112648;28;20131;-70
2022/04/15 03:02:21;;;;;;;0.90;0.70;;;;;;;21.46;46.62;99568.88;5112144;28;20100;-70
2022/04/15 03:04:46;;;;;;;0.82;0.60;;;;;;;21.46;46.62;99573.63;5112464;28;20079;-70
2022/04/15 03:07:12;;;;;;;1.00;0.60;;;;;;;21.47;46.79;99566.88;5112466;28;20048;-70
2022/04/15 03:09:37;;;;;;;0.93;0.60;;;;;;;21.46;46.76;99568.88;5111937;28;20039;-70
2022/04/15 03:12:03;;;;;;;0.95;0.70;;;;;;;21.43;46.59;99567.66;5111660;28;20481;-70
2022/04/15 03:14:28;;;;;;;1.33;0.73;;;;;;;21.43;46.60;99562.09;5112544;28;20414;-70
2022/04/15 03:16:54;;;;;;;0.60;0.40;;;;;;;21.41;46.56;99564.41;5112275;28;20035;-70
2022/04/15 03:19:19;;;;;;;1.17;0.60;;;;;;;21.46;46.49;99562.50;5112333;28;20131;-70
2022/04/15 03:21:44;;;;;;;0.77;0.60;;;;;;;21.45;46.86;99570.06;5112306;28;20545;-70
2022/04/15 03:24:10;;;;;;;0.80;0.63;;;;;;;21.44;46.71;99571.22;5112281;28;20120;-70
2022/04/15 03:26:35;;;;;;;0.80;0.60;;;;;;;21.42;46.57;99568.81;5112028;28;20043;-70
2022/04/15 03:29:01;;;;;;;1.08;0.60;;;;;;;21.42;46.64;99574.38;5112298;28;20135;-70
2022/04/15 03:31:26;;;;;;;1.15;0.68;;;;;;;21.42;46.61;99585.50;5112319;28;20050;-70
2022/04/15 03:33:52;;;;;;;0.55;0.50;;;;;;;21.41;46.42;99574.75;5111958;28;20116;-70
2022/04/15 03:36:18;;;;;;;0.82;0.60;;;;;;;21.43;46.79;99584.34;5112158;28;20050;-70
2022/04/15 03:38:44;;;;;;;0.68;0.57;;;;;;;21.43;46.57;99584.34;5111963;28;20067;-70
2022/04/15 03:41:09;;;;;;;1.35;0.70;;;;;;;21.43;46.46;99581.56;5112140;28;20509;-70
2022/04/15 03:43:35;;;;;;;0.93;0.60;;;;;;;21.43;46.49;99586.31;5111780;28;20526;-66
2022/04/15 03:46:00;;;;;;;0.82;0.50;;;;;;;21.43;46.81;99591.88;5111978;28;20066;-66
2022/04/15 03:48:26;;;;;;;1.35;0.70;;;;;;;21.43;46.42;99592.69;5111453;28;20406;-66
2022/04/15 03:50:53;;;;;;;0.68;0.50;;;;;;;21.40;46.59;99590.66;5111482;28;20395;-66
2022/04/15 03:53:19;;;;;;;1.27;0.75;;;;;;;21.42;46.86;99590.25;5111683;28;20117;-66
2022/04/15 03:55:45;;;;;;;0.70;0.60;;;;;;;21.42;46.60;99593.06;5111174;28;20036;-66
2022/04/15 03:58:13;;;;;;;1.30;0.80;;;;;;;21.41;46.44;99597.81;5111479;28;20032;-66
2022/04/15 04:00:39;;;;;;;0.80;0.60;;;;;;;21.42;46.58;99590.25;5111629;28;20040;-66
2022/04/15 04:03:04;;;;;;;0.93;0.57;;;;;;;21.41;46.77;99597.00;5111792;28;20628;-66
2022/04/15 04:05:30;;;;;;;0.80;0.60;;;;;;;21.38;46.49;99598.56;5111542;28;20145;-66
2022/04/15 04:07:56;;;;;;;0.95;0.60;;;;;;;21.41;46.67;99597.00;5111616;28;20583;-66
2022/04/15 04:10:21;;;;;;;0.60;0.50;;;;;;;21.40;46.62;99599.00;5111770;28;20414;-66
2022/04/15 04:12:48;;;;;;;1.50;0.77;;;;;;;21.40;46.62;99603.75;5111610;28;20044;-66
2022/04/15 04:15:14;;;;;;;1.25;0.70;;;;;;;21.40;46.35;99610.13;5111458;28;20051;-66
2022/04/15 04:17:41;;;;;;;0.82;0.60;;;;;;;21.38;46.50;99609.69;5110801;28;20042;-66
2022/04/15 04:20:09;;;;;;;0.85;0.60;;;;;;;21.37;46.36;99607.31;5111325;28;20036;-66
2022/04/15 04:22:36;;;;;;;0.65;0.50;;;;;;;21.38;46.08;99611.69;5111284;28;20048;-66
2022/04/15 04:25:03;;;;;;;0.90;0.52;;;;;;;21.38;46.33;99618.06;5111008;28;20039;-66
2022/04/15 04:27:28;;;;;;;0.70;0.60;;;;;;;21.37;46.33;99613.66;5111186;28;20047;-66
2022/04/15 04:29:54;;;;;;;0.85;0.60;;;;;;;21.38;46.26;99615.28;5111216;28;20053;-66
2022/04/15 04:32:19;;;;;;;1.10;0.60;;;;;;;21.39;46.16;99619.66;5111172;28;20109;-66
2022/04/15 04:34:45;;;;;;;1.02;0.60;;;;;;;21.37;46.43;99619.22;5111186;28;20093;-70
2022/04/15 04:37:11;;;;;;;0.75;0.60;;;;;;;21.38;46.20;99625.59;5110572;28;20127;-69
2022/04/15 04:39:36;;;;;;;1.33;0.70;;;;;;;21.38;46.33;99622.81;5111287;28;20047;-70
2022/04/15 04:42:03;;;;;;;0.75;0.52;;;;;;;21.36;46.31;99620.41;5111109;28;20044;-70
2022/04/15 04:44:30;;;;;;;0.98;0.68;;;;;;;21.36;46.33;99625.97;5111088;28;20047;-69
2022/04/15 04:46:56;;;;;;;0.90;0.50;;;;;;;21.36;46.38;99620.41;5111205;28;20044;-66
2022/04/15 04:49:22;;;;;;;0.75;0.50;;;;;;;21.36;46.20;99623.19;5111252;28;20075;-66
2022/04/15 04:51:48;;;;;;;0.88;0.60;;;;;;;21.37;46.20;99624.00;5110836;28;20048;-66
2022/04/15 04:54:14;;;;;;;0.75;0.60;;;;;;;21.37;46.24;99622.00;5110936;28;20050;-69
2022/04/15 04:56:39;;;;;;;1.13;0.63;;;;;;;21.37;46.10;99619.22;5110456;28;20035;-66
2022/04/15 04:59:04;;;;;;;0.90;0.50;;;;;;;21.35;46.39;99617.97;5110193;28;20044;-66
2022/04/15 05:01:30;;;;;;;1.67;0.70;;;;;;;21.38;46.36;99620.03;5110023;28;20463;-66
2022/04/15 05:03:55;;;;;;;0.40;0.40;;;;;;;21.38;46.42;99629.19;5109723;28;20047;-66
2022/04/15 05:06:21;;;;;;;1.13;0.70;;;;;;;21.38;46.56;99628.38;5108101;28;20470;-66
2022/04/15 05:08:46;;;;;;;1.20;0.65;;;;;;;21.37;46.32;99633.16;5108845;28;20050;-66
2022/04/15 05:11:11;;;;;;;1.58;0.68;;;;;;;21.37;46.35;99629.56;5110160;28;20360;-66
2022/04/15 05:13:37;;;;;;;1.08;0.65;;;;;;;21.36;46.38;99634.31;5110114;28;20114;-66
2022/04/15 05:16:02;;;;;;;0.80;0.60;;;;;;;21.36;46.48;99639.06;5110145;28;20553;-69
2022/04/15 05:18:28;;;;;;;1.00;0.63;;;;;;;21.37;46.35;99641.50;5110224;28;20042;-70
2022/04/15 05:20:53;;;;;;;0.90;0.60;;;;;;;21.37;46.34;99647.06;5110576;28;20040;-70
2022/04/15 05:23:19;;;;;;;1.08;0.63;;;;;;;21.37;46.42;99647.06;5110339;28;20399;-70
2022/04/15 05:25:45;;;;;;;0.93;0.68;;;;;;;21.38;46.28;99653.44;5110447;28;20032;-70
2022/04/15 05:28:11;;;;;;;0.77;0.60;;;;;;;21.38;46.39;99657.00;5110352;28;20105;-70
2022/04/15 05:30:36;;;;;;;0.88;0.70;;;;;;;21.37;46.42;99652.63;5109695;28;20039;-70
2022/04/15 05:33:02;;;;;;;0.98;0.60;;;;;;;21.34;46.50;99647.78;5110397;28;20123;-70
2022/04/15 05:35:27;;;;;;;1.30;0.60;;;;;;;21.37;46.62;99658.19;5110376;28;20449;-70
2022/04/15 05:37:52;;;;;;;0.88;0.60;;;;;;;21.37;46.45;99663.75;5109875;28;20453;-70
2022/04/15 05:40:19;;;;;;;0.70;0.60;;;;;;;21.37;46.74;99663.75;5109999;28;20460;-70
2022/04/15 05:42:47;;;;;;;0.93;0.60;;;;;;;21.36;46.39;99669.66;5109801;28;20039;-66
2022/04/15 05:45:12;;;;;;;0.70;0.50;;;;;;;21.38;46.79;99672.91;5090212;28;20083;-66
2022/04/15 05:47:39;;;;;;;0.98;0.60;;;;;;;21.38;46.59;99668.13;5110149;28;20131;-65
2022/04/15 05:50:06;;;;;;;0.65;0.55;;;;;;;21.38;46.56;99673.72;5109854;28;20498;-70
2022/04/15 05:52:33;;;;;;;1.30;0.70;;;;;;;21.38;46.87;99675.69;5109866;28;20048;-70
2022/04/15 05:54:58;;;;;;;2.08;0.60;;;;;;;21.38;46.80;99672.91;5110193;28;20071;-70
2022/04/15 05:57:24;;;;;;;1.52;0.70;;;;;;;21.37;46.81;99677.66;5109730;28;20116;-70
2022/04/15 05:59:49;;;;;;;0.90;0.52;;;;;;;21.83;45.88;99688.72;5109862;28;20051;-70
2022/04/15 06:02:15;;;;;;;1.08;0.60;;;;;;;22.67;44.26;99678.31;5109620;28;20055;-70
2022/04/15 06:04:40;;;;;;;1.20;0.70;;;;;;;23.45;42.55;99679.09;5109507;28;20047;-70
2022/04/15 06:07:05;;;;;;;0.93;0.60;;;;;;;23.39;42.18;99677.06;5109280;28;20518;-70
2022/04/15 06:09:31;;;;;;;0.90;0.70;;;;;;;23.01;43.17;99682.69;5109464;28;20123;-66
2022/04/15 06:11:56;;;;;;;1.27;0.70;;;;;;;22.64;43.69;99684.63;5109505;28;20044;-70
2022/04/15 06:14:22;;;;;;;1.58;0.80;;;;;;;22.38;44.58;99691.91;5109003;28;20093;-70
2022/04/15 06:16:49;;;;;;;1.17;0.77;;;;;;;22.18;44.96;99687.66;5109212;28;20051;-70
2022/04/15 06:19:15;;;;;;;0.88;0.68;;;;;;;22.02;45.20;99690.59;5109802;28;20043;-70
2022/04/15 06:21:41;;;;;;;1.08;0.70;;;;;;;21.93;45.73;99692.81;5112717;28;20044;-70
2022/04/15 06:24:08;;;;;;;1.13;0.70;;;;;;;21.84;45.58;99689.50;5112770;28;20216;-70
2022/04/15 06:26:34;;;;;;;1.08;0.70;;;;;;;21.77;45.73;99689.41;5113068;28;20421;-70
2022/04/15 06:29:00;;;;;;;0.80;0.60;;;;;;;21.75;46.14;99697.34;5112747;28;20096;-70
2022/04/15 06:31:25;;;;;;;1.42;0.80;;;;;;;21.71;46.08;99688.91;5112698;28;20123;-66
2022/04/15 06:33:52;;;;;;;1.00;0.70;;;;;;;21.69;45.93;99688.50;5112683;28;20048;-66
2022/04/15 06:36:20;;;;;;;0.93;0.60;;;;;;;21.68;46.14;99689.69;5112638;28;20047;-65
2022/04/15 06:38:46;;;;;;;0.90;0.65;;;;;;;21.64;46.17;99694.38;5113085;28;20063;-70
2022/04/15 06:41:12;;;;;;;0.82;0.70;;;;;;;21.64;46.03;99686.03;5112752;28;20396;-70
2022/04/15 06:43:38;;;;;;;1.00;0.73;;;;;;;21.63;46.56;99687.22;5112763;28;20575;-70
2022/04/15 06:46:05;;;;;;;1.40;0.80;;;;;;;21.64;46.23;99691.59;5110350;28;20056;-72
2022/04/15 06:48:30;;;;;;;1.23;0.70;;;;;;;21.77;46.02;99690.22;5100883;28;20099;-72
2022/04/15 06:50:56;;;;;;;1.50;0.80;;;;;;;21.80;46.13;99694.25;5108958;28;20035;-71
2022/04/15 06:53:23;;;;;;;1.50;0.85;;;;;;;21.82;45.74;99695.47;5101487;28;20051;-71
2022/04/15 06:55:52;;;;;;;2.22;0.80;;;;;;;21.85;45.83;99694.72;5099671;28;20078;-72
2022/04/15 06:58:18;;;;;;;4.30;0.80;;;;;;;21.85;45.81;99691.91;5111594;28;20495;-71
2022/04/15 07:00:43;;;;;;;1.63;0.88;;;;;;;21.87;45.73;99688.78;5112622;28;20130;-71
2022/04/15 07:03:10;;;;;;;2.72;0.68;;;;;;;21.87;45.97;99699.91;5101651;28;20043;-70
2022/04/15 07:05:36;;;;;;;1.92;0.80;;;;;;;21.86;45.66;99699.13;5092754;28;20528;-70
2022/04/15 07:08:01;;;;;;;1.52;0.73;;;;;;;21.89;45.79;99692.78;5100093;28;20036;-69
2022/04/15 07:10:27;;;;;;;2.03;0.60;;;;;;;21.89;45.95;99694.78;5102579;28;20048;-70
2022/04/15 07:12:52;;;;;;;2.75;1.05;;;;;;;21.88;45.78;99691.19;5100547;28;20372;-69
2022/04/15 07:15:19;;;;;;;1.55;0.77;;;;;;;21.93;45.93;99695.63;5108030;28;20097;-69
2022/04/15 07:17:45;;;;;;;1.48;0.80;;;;;;;21.95;45.53;99685.72;5100445;28;20040;-68
2022/04/15 07:20:11;;;;;;;1.63;0.80;;;;;;;21.96;45.79;99684.53;5054614;28;20039;-65
2022/04/15 07:22:36;;;;;;;1.30;0.80;;;;;;;21.99;45.81;99699.69;5057123;28;20063;-65
2022/04/15 07:25:02;;;;;;;1.33;0.80;;;;;;;22.02;45.53;99698.16;5074675;28;20051;-64
2022/04/15 07:27:27;;;;;;;1.52;0.75;;;;;;;22.01;45.80;99702.13;5073026;28;20530;-60
2022/04/15 07:29:53;;;;;;;0.98;0.73;;;;;;;21.99;45.94;99685.75;5054353;28;20422;-63
2022/04/15 07:32:21;;;;;;;1.40;0.80;;;;;;;22.03;46.02;99688.59;5070772;28;20137;-63
2022/04/15 07:34:46;;;;;;;1.40;0.82;;;;;;;22.06;46.00;99685.84;5076301;28;20055;-63
2022/04/15 07:37:12;;;;;;;1.23;0.70;;;;;;;22.08;46.11;99682.72;5077185;28;20044;-63
2022/04/15 07:39:38;;;;;;;1.33;0.70;;;;;;;22.09;46.16;99676.00;5074134;28;20075;-59
2022/04/15 07:42:03;;;;;;;3.58;1.00;;;;;;;22.09;46.00;99678.78;5078404;28;21679;-65
2022/04/15 07:44:30;;;;;;;1.95;0.88;;;;;;;22.12;45.76;99675.22;5071654;28;20087;-59
2022/04/15 07:46:55;;;;;;;1.20;0.73;;;;;;;22.12;45.83;99666.88;5075331;28;20044;-65
2022/04/15 07:49:20;;;;;;;1.35;0.77;;;;;;;22.15;45.76;99666.13;5067639;28;20047;-68
2022/04/15 07:51:46;;;;;;;1.20;0.70;;;;;;;22.19;45.74;99661.41;5074981;28;20036;-70
2022/04/15 07:54:12;;;;;;;2.70;0.90;;;;;;;22.24;45.73;99669.44;5073015;28;20044;-71
2022/04/15 07:56:37;;;;;;;3.25;0.77;;;;;;;22.19;45.90;99658.59;5069601;28;20047;-61
2022/04/15 07:59:04;;;;;;;2.10;0.82;;;;;;;22.24;45.72;99661.88;5072470;28;20043;-61
2022/04/15 08:01:31;;;;;;;1.10;0.80;;;;;;;22.27;45.61;99663.09;5073886;28;20039;-61
2022/04/15 08:03:57;;;;;;;1.83;0.88;;;;;;;22.32;45.59;99659.19;5076134;28;20047;-62
2022/04/15 08:06:25;;;;;;;1.90;0.90;;;;;;;22.33;45.72;99664.34;5077796;28;20052;-61
2022/04/15 08:08:54;;;;;;;1.88;0.90;;;;;;;22.37;45.76;99661.63;5056152;28;20091;-62
2022/04/15 08:11:20;;;;;;;1.25;0.80;;;;;;;22.38;45.73;99661.25;5072786;28;20054;-63
2022/04/15 08:13:46;;;;;;;1.52;0.93;;;;;;;22.44;45.66;99661.72;5076416;28;20075;-63
2022/04/15 08:16:12;;;;;;;1.60;0.73;;;;;;;22.42;45.44;99658.50;5077480;28;20155;-66
2022/04/15 08:18:37;;;;;;;1.70;0.85;;;;;;;22.47;45.63;99666.53;5076855;28;20044;-70
2022/04/15 08:21:02;;;;;;;1.23;0.80;;;;;;;22.43;45.72;99658.13;5070764;28;20093;-71
2022/04/15 08:23:28;;;;;;;1.55;0.80;;;;;;;22.50;45.45;99655.44;5072408;28;20048;-72
2022/04/15 08:25:53;;;;;;;2.22;0.90;;;;;;;22.45;45.57;99661.34;5076460;28;20052;-68
2022/04/15 08:28:20;;;;;;;1.55;0.88;;;;;;;22.42;45.61;99664.88;5055027;28;20512;-72
2022/04/15 08:30:46;;;;;;;2.08;0.90;;;;;;;22.85;45.54;99662.56;5071909;28;20171;-66
2022/04/15 08:33:12;;;;;;;1.35;0.80;;;;;;;23.33;43.94;99660.66;5074008;28;20056;-69
2022/04/15 08:35:38;;;;;;;1.67;0.70;;;;;;;23.72;43.02;99659.38;5075885;28;20105;-69
2022/04/15 08:38:04;;;;;;;1.40;0.90;;;;;;;24.00;42.40;99659.53;5060340;28;20047;-71
2022/04/15 08:40:31;;;;;;;1.67;0.80;;;;;;;24.19;41.96;99652.88;5072428;28;20133;-72
2022/04/15 08:42:57;;;;;;;2.55;1.15;;;;;;;24.30;41.72;99652.94;5074664;28;20044;-67
2022/04/15 08:45:26;;;;;;;1.38;0.73;;;;;;;24.39;41.56;99650.59;5075734;28;20074;-74
2022/04/15 08:47:57;;;;;;;1.15;0.80;;;;;;;24.48;41.38;99653.03;5074293;28;20089;-72
2022/04/15 08:50:23;;;;;;;4.93;0.90;;;;;;;24.56;41.37;99652.66;5074481;28;20036;-73
2022/04/15 08:52:52;;;;;;;2.35;0.98;;;;;;;24.61;41.16;99655.06;5075197;28;20052;-73
2022/04/15 08:55:21;;;;;;;1.40;0.77;;;;;;;24.58;41.33;99653.06;5081093;28;20098;-71
2022/04/15 08:57:47;;;;;;;2.15;1.15;;;;;;;24.00;42.46;99653.97;5083080;28;20048;-68
2022/04/15 09:00:13;;;;;;;1.33;0.85;;;;;;;24.10;42.47;99655.22;5051435;28;20044;-64
2022/04/15 09:02:38;;;;;;;1.58;0.90;;;;;;;24.40;41.82;99655.00;5077229;28;20100;-68
2022/04/15 09:05:05;;;;;;;5.40;0.90;;;;;;;24.61;41.45;99654.25;5076918;28;20047;-67
2022/04/15 09:07:32;;;;;;;2.13;1.00;;;;;;;24.74;40.74;99651.91;5078503;28;20052;-65
2022/04/15 09:09:59;;;;;;;2.40;1.00;;;;;;;24.79;41.11;99652.31;5072005;28;20048;-66
2022/04/15 09:12:27;;;;;;;1.40;0.90;;;;;;;24.89;40.76;99650.75;5073898;28;20431;-65
2022/04/15 09:15:11;;;;;;;2.95;1.10;;;;;;;24.89;40.95;99645.16;5075838;28;20047;-65
2022/04/15 09:17:38;;;;;;;1.95;0.80;;;;;;;24.91;41.03;99640.75;5073037;28;20063;-64
2022/04/15 09:20:05;;;;;;;2.00;1.15;;;;;;;24.92;40.71;99638.75;5072124;28;20664;-66
2022/04/15 09:22:31;;;;;;;3.72;1.10;;;;;;;24.97;40.67;99641.16;5074664;28;20048;-65
2022/04/15 09:24:58;;;;;;;3.22;1.00;;;;;;;24.96;41.09;99633.97;5074948;28;20098;-62
2022/04/15 09:27:24;;;;;;;1.10;0.70;;;;;;;24.98;41.01;99637.16;5073499;28;20047;-64
2022/04/15 09:29:51;;;;;;;2.60;1.20;;;;;;;25.03;40.80;99630.38;5069911;28;20458;-62
2022/04/15 09:32:18;;;;;;;2.05;0.73;;;;;;;25.11;40.74;99630.00;5071598;28;20043;-64
2022/04/15 09:34:59;;;;;;;1.88;0.93;;;;;;;25.17;40.44;99628.41;5074617;28;20075;-60
2022/04/15 09:37:31;;;;;;;1.30;0.70;;;;;;;25.25;40.32;99630.00;5072710;28;20185;-63
2022/04/15 09:40:14;;;;;;;1.20;0.80;;;;;;;25.29;40.39;99629.19;5069093;28;20141;-64
2022/04/15 09:42:55;;;;;;;1.30;0.80;;;;;;;25.34;39.88;99617.59;5071397;28;20044;-61
2022/04/15 09:45:21;;;;;;;2.70;1.00;;;;;;;25.44;39.69;99622.41;5074823;28;20050;-62
2022/04/15 09:48:01;;;;;;;2.15;0.80;;;;;;;25.47;39.59;99616.78;5072229;28;20048;-63
2022/04/15 09:50:36;;;;;;;9.60;0.90;;;;;;;25.55;39.54;99617.59;5065583;28;20044;-61
2022/04/15 09:53:21;;;;;;;1.13;0.77;;;;;;;25.61;39.70;99615.97;5071053;28;20195;-64
2022/04/15 09:55:48;;;;;;;6.82;0.80;;;;;;;25.69;39.56;99617.56;5070000;28;20048;-66
2022/04/15 09:58:14;;;;;;;2.72;0.90;;;;;;;25.74;39.28;99622.00;5070910;28;20127;-63
2022/04/15 10:00:43;;;;;;;1.65;0.90;;;;;;;25.72;39.19;99613.19;5070519;28;20062;-64
2022/04/15 10:03:14;;;;;;;1.52;0.75;;;;;;;25.64;39.36;99603.16;5053848;28;20048;-64
2022/04/15 10:05:41;;;;;;;1.23;0.70;;;;;;;25.58;39.43;99611.19;5069721;28;20083;-63
2022/04/15 10:08:08;;;;;;;2.53;0.80;;;;;;;25.51;39.75;99609.19;5071589;28;20953;-64
2022/04/15 10:10:34;;;;;;;2.25;1.00;;;;;;;25.46;39.70;99612.41;5066486;28;21421;-64
2022/04/15 10:13:03;;;;;;;1.38;0.65;;;;;;;25.35;39.95;99606.00;5071519;28;20454;-64
2022/04/15 10:15:33;;;;;;;2.97;0.80;;;;;;;25.15;40.16;99614.03;5072483;28;20036;-66
2022/04/15 10:18:00;;;;;;;1.67;0.80;;;;;;;24.70;41.03;99610.72;5089832;28;20047;-65
2022/04/15 10:20:29;;;;;;;2.30;0.80;;;;;;;24.46;41.56;99605.09;5080752;28;20036;-65
2022/04/15 10:23:07;;;;;;;1.70;0.90;;;;;;;24.31;41.87;99598.63;5086109;28;20035;-65
2022/04/15 10:25:35;;;;;;;1.55;0.77;;;;;;;24.24;41.95;99595.81;5086180;28;20047;-65
2022/04/15 10:28:11;;;;;;;1.85;0.82;;;;;;;24.23;42.13;99594.19;5085294;28;20384;-65
2022/04/15 10:30:38;;;;;;;3.38;0.75;;;;;;;24.20;42.08;99586.59;5097307;28;20044;-69
2022/04/15 10:33:04;;;;;;;2.30;1.00;;;;;;;24.15;42.01;99585.00;5074259;28;20199;-68
2022/04/15 10:35:31;;;;;;;1.50;0.73;;;;;;;24.13;41.87;99587.34;5096011;28;20502;-65
2022/04/15 10:38:10;;;;;;;2.47;0.85;;;;;;;24.13;42.21;99581.78;5098045;28;20058;-65
2022/04/15 10:40:37;;;;;;;1.30;0.90;;;;;;;24.11;42.08;99582.16;5102974;28;20059;-65
2022/04/15 10:43:17;;;;;;;2.03;0.80;;;;;;;24.13;41.95;99576.19;5106910;28;20040;-65
2022/04/15 10:45:43;;;;;;;1.00;0.60;;;;;;;24.12;42.08;99574.59;5102432;28;20051;-68
2022/04/15 10:48:08;;;;;;;3.20;1.00;;;;;;;24.08;42.29;99571.00;5087649;28;20055;-68
2022/04/15 10:50:35;;;;;;;2.40;1.00;;;;;;;24.06;42.13;99562.19;5100584;28;20051;-68
2022/04/15 10:53:18;;;;;;;1.65;1.00;;;;;;;24.12;42.19;99564.19;5075585;28;20070;-68
2022/04/15 10:55:49;;;;;;;3.15;1.10;;;;;;;24.13;41.90;99563.00;5086341;28;20501;-68
2022/04/15 10:58:16;;;;;;;3.42;0.98;;;;;;;24.12;42.11;99558.63;5075504;28;20521;-65
2022/04/15 11:03:29;;;;;;;1.33;0.63;;;;;;;24.13;42.22;99551.81;5093880;28;20121;-65
2022/04/15 11:05:59;;;;;;;1.98;0.80;;;;;;;24.13;41.82;99556.63;5089199;28;20131;-65
2022/04/15 11:08:27;;;;;;;0.82;0.60;;;;;;;24.13;41.89;99537.84;5105883;28;20047;-65
2022/04/15 11:10:58;;;;;;;1.98;0.98;;;;;;;24.13;42.13;99548.22;5084081;28;20411;-65
2022/04/15 11:13:32;;;;;;;1.02;0.75;;;;;;;24.13;41.85;99543.44;5098641;28;20522;-65
2022/04/15 11:16:03;;;;;;;1.77;0.88;;;;;;;24.14;41.91;99536.66;5093598;28;20051;-65
2022/04/15 11:18:50;;;;;;;1.75;0.90;;;;;;;24.15;41.84;99529.91;5092520;28;20545;-66
2022/04/15 11:21:17;;;;;;;1.73;0.90;;;;;;;24.18;42.02;99522.72;5099293;28;20083;-66
2022/04/15 11:23:55;;;;;;;2.33;0.82;;;;;;;24.19;42.13;99524.31;5100655;28;20465;-66
2022/04/15 11:26:25;;;;;;;1.33;0.88;;;;;;;24.20;42.06;99513.91;5103994;28;20525;-66
2022/04/15 11:28:52;;;;;;;1.50;0.82;;;;;;;24.21;42.15;99516.31;5105907;28;20079;-75
2022/04/15 11:31:38;;;;;;;1.40;0.80;;;;;;;24.20;42.26;99509.13;5099608;28;20097;-72
2022/04/15 11:34:09;;;;;;;0.90;0.70;;;;;;;24.21;42.01;99502.34;5076988;28;20046;-72
2022/04/15 11:36:40;;;;;;;3.60;0.93;;;;;;;24.25;42.03;99493.97;5110946;28;20039;-71